New Richmond Regional Airport
KRNH : now visible

Airfield :











YOU CAN JOIN US ON...

 
LOGIN :

Register | Disclaimer

   EN    FR    IT 

 









Legend :    VFR   Marginal VFR   IFR   Intensive IFR   Very Intensive IFR
Visi :
Ceiling :
>= 8 km
>= 3000ft
5 to 8 km
1000 to 3000 ft
1500m to 5 km
500 to 1000 ft
800 to 1500m
200 to 500 ft
< 800m
< 200 ft
Symbols :   Thunderstorms  Fog  Heavy snow  Heavy precipitations  Wind > 20 kt







- Airport Elevation : 998 ft


KRNH - New Richmond Regional

CURRENT METAR :
  • 211735Z AUTO 18009G17KT 10SM OVC015 23/20 A2981 RMK AO2 T02310195

EXPIRED METARs :
  • 211715Z AUTO 16012G17KT 10SM BKN015 OVC022 23/20 A2979 RMK AO2 T02330195
  • 211655Z AUTO 16008G17KT 140V200 10SM BKN015 OVC028 23/20 A2979 RMK AO2 T02340196
  • 211635Z AUTO 17013KT 10SM OVC015 23/20 A2981 RMK AO2 T02320196
  • 211615Z AUTO 17012G17KT 10SM OVC015 23/19 A2982 RMK AO2 T02280192
  • 211555Z AUTO 19011G20KT 10SM BKN017 OVC022 23/19 A2983 RMK AO2 T02310191
  • 211535Z AUTO 19013G19KT 10SM BKN015 BKN023 OVC028 24/19 A2982 RMK AO2 T02350191
  • 211515Z AUTO 20014G22KT 10SM OVC015 24/19 A2982 RMK AO2 T02350193
  • 211455Z AUTO 19012G18KT 10SM OVC015 23/20 A2982 RMK AO2 T02270195

TAF KRNH
Valid from the 21 at 18:00 until the 22 at 18:00 UTC


211720Z 2118/2218 19015G25KT P6SM VCSH OVC015
FM212100 20015G25KT P6SM VCTS SCT020 OVC030CB
TEMPO 2121/2124 3SM -TSRA BR BKN015CB
FM220100 20010KT P6SM BKN035
FM220500 27007KT P6SM SCT040 SCT250
No reported NOTAMs for that airfield.



MET'MAP, your aeronautical weather chart ! - Copyright ORBIFLY December 2007 - Disclaimer

ORBIFLY MET'MAP TEAM :

Programming & Development : Alexandra Zaïnal
Concept & Development : Baudouin d'Aumeries
Co-Development & Prog : Marc-Olivier Méhu
Technical & hardware support : Manuel Goepfert

Contact : metmap@orbifly.com




SOURCES & CREDITS :

   NOAA       Earth
Advisory